Time;durP1;ratioP1;P1;durP2;ratioP2;P2;SDS_P1;SDS_P2;PMS_P1;PMS_P2;Temp;Humidity;BMP_temperature;BMP_pressure;BME280_temperature;BME280_humidity;BME280_pressure;Samples;Min_cycle;Max_cycle;Signal;HPM_P1;HPM_P2
2022/09/03 03:02:27;;;;;;;0.80;0.60;;;19.60;67.00;;;;;;5211969;23;20558;-73
2022/09/03 03:04:54;;;;;;;0.70;0.60;;;19.60;67.10;;;;;;4942095;29;20456;-73
2022/09/03 03:07:21;;;;;;;0.70;0.60;;;19.50;67.20;;;;;;4941399;29;20822;-73
2022/09/03 03:09:48;;;;;;;0.70;0.70;;;19.50;67.30;;;;;;4940703;29;21018;-72
2022/09/03 03:12:16;;;;;;;2.50;0.60;;;19.40;67.50;;;;;;4940152;29;20503;-72
2022/09/03 03:14:42;;;;;;;0.90;0.70;;;19.20;68.40;;;;;;4942244;29;20536;-73
2022/09/03 03:17:09;;;;;;;0.70;0.60;;;19.10;68.90;;;;;;4941090;29;20448;-72
2022/09/03 03:19:37;;;;;;;0.90;0.60;;;18.90;69.10;;;;;;4940569;29;20488;-73
2022/09/03 03:22:04;;;;;;;0.90;0.60;;;18.90;69.40;;;;;;4940686;29;20476;-73
2022/09/03 03:24:31;;;;;;;0.70;0.60;;;19.00;69.40;;;;;;4940558;29;20455;-73
2022/09/03 03:26:58;;;;;;;0.70;0.60;;;19.10;69.30;;;;;;4939994;29;20464;-73
2022/09/03 03:29:25;;;;;;;0.70;0.60;;;19.10;69.40;;;;;;4940545;29;20456;-73
2022/09/03 03:31:52;;;;;;;0.70;0.60;;;19.10;69.20;;;;;;4939970;29;20826;-73
2022/09/03 03:34:18;;;;;;;0.70;0.60;;;19.10;69.20;;;;;;4940667;29;20456;-73
2022/09/03 03:36:46;;;;;;;0.80;0.60;;;19.20;69.60;;;;;;4940333;29;20460;-73
2022/09/03 03:39:13;;;;;;;0.80;0.70;;;19.20;69.70;;;;;;4940630;29;20515;-73
2022/09/03 03:41:40;;;;;;;0.80;0.67;;;19.20;69.90;;;;;;4939796;29;21004;-72
2022/09/03 03:44:08;;;;;;;0.70;0.63;;;19.20;70.10;;;;;;4940486;29;20452;-73
2022/09/03 03:46:37;;;;;;;0.70;0.63;;;19.20;70.20;;;;;;4939915;29;20488;-73
2022/09/03 03:49:05;;;;;;;0.70;0.60;;;19.20;70.30;;;;;;4939919;29;20455;-73
2022/09/03 03:51:32;;;;;;;0.97;0.70;;;19.10;70.30;;;;;;4939841;29;20480;-73
2022/09/03 03:54:00;;;;;;;0.80;0.60;;;19.10;70.30;;;;;;4940384;29;20801;-73
2022/09/03 03:56:27;;;;;;;0.70;0.70;;;19.10;70.40;;;;;;4940512;29;20571;-73
2022/09/03 03:58:54;;;;;;;0.70;0.70;;;19.10;70.50;;;;;;4939749;29;20487;-72
2022/09/03 04:01:23;;;;;;;0.70;0.60;;;19.10;70.50;;;;;;4939147;29;20480;-73
2022/09/03 04:03:50;;;;;;;0.70;0.60;;;19.10;70.60;;;;;;4939545;29;20460;-72
2022/09/03 04:06:19;;;;;;;0.80;0.60;;;19.20;70.60;;;;;;4940130;29;20460;-72
2022/09/03 04:08:47;;;;;;;0.70;0.60;;;19.20;70.50;;;;;;4939512;29;20507;-73
2022/09/03 04:11:17;;;;;;;0.70;0.60;;;19.10;70.60;;;;;;4939282;29;21046;-72
2022/09/03 04:13:45;;;;;;;0.80;0.70;;;19.10;70.80;;;;;;4939293;29;20940;-73
2022/09/03 04:16:14;;;;;;;0.80;0.63;;;19.10;70.90;;;;;;4939048;29;20456;-72
2022/09/03 04:18:41;;;;;;;0.70;0.70;;;19.10;71.10;;;;;;4939308;29;20491;-73
2022/09/03 04:21:09;;;;;;;0.70;0.60;;;19.10;71.20;;;;;;4939566;29;20480;-73
2022/09/03 04:23:38;;;;;;;0.70;0.60;;;19.00;71.60;;;;;;4939131;29;20456;-72
2022/09/03 04:26:05;;;;;;;0.90;0.73;;;19.00;71.70;;;;;;4939302;29;20456;-72
2022/09/03 04:28:34;;;;;;;0.70;0.60;;;19.00;71.60;;;;;;4939418;29;20815;-72
2022/09/03 04:31:01;;;;;;;0.80;0.80;;;19.00;71.70;;;;;;4938978;29;20468;-73
2022/09/03 04:33:29;;;;;;;0.70;0.60;;;19.10;71.80;;;;;;4939309;29;20539;-73
2022/09/03 04:36:04;;;;;;;0.90;0.70;;;19.10;71.60;;;;;;4938957;29;20533;-72
2022/09/03 04:38:31;;;;;;;0.90;0.70;;;19.00;71.50;;;;;;4938549;29;20447;-72
2022/09/03 04:40:59;;;;;;;0.87;0.67;;;19.00;71.30;;;;;;4938842;29;20492;-72
2022/09/03 04:43:26;;;;;;;0.80;0.80;;;18.90;71.40;;;;;;4938842;29;20444;-73
2022/09/03 04:45:56;;;;;;;0.70;0.60;;;18.70;71.40;;;;;;4939583;29;20459;-72
2022/09/03 04:48:23;;;;;;;0.80;0.70;;;18.60;72.40;;;;;;4938545;29;20444;-73
2022/09/03 04:50:49;;;;;;;0.90;0.90;;;18.60;72.60;;;;;;4938542;29;20867;-72
2022/09/03 04:53:16;;;;;;;0.70;0.60;;;18.60;72.70;;;;;;4938521;29;20943;-73
2022/09/03 04:55:43;;;;;;;0.70;0.60;;;18.60;72.90;;;;;;4938627;29;20464;-73
2022/09/03 04:58:09;;;;;;;0.70;0.60;;;18.80;72.70;;;;;;4938794;29;20464;-73
2022/09/03 05:00:36;;;;;;;0.70;0.70;;;18.90;72.60;;;;;;4938679;29;20484;-72
2022/09/03 05:03:04;;;;;;;0.70;0.70;;;19.00;72.40;;;;;;4937845;29;20456;-73
2022/09/03 05:05:32;;;;;;;0.80;0.60;;;19.10;72.00;;;;;;4938207;29;20993;-73
2022/09/03 05:08:00;;;;;;;0.80;0.60;;;19.10;72.10;;;;;;4937151;29;20488;-73
2022/09/03 05:10:27;;;;;;;0.70;0.60;;;19.20;72.00;;;;;;4938471;29;20606;-73
2022/09/03 05:12:59;;;;;;;0.80;0.70;;;19.30;71.60;;;;;;4939571;29;20463;-72
2022/09/03 05:15:26;;;;;;;0.70;0.60;;;19.30;71.10;;;;;;4937551;29;20441;-72
2022/09/03 05:17:56;;;;;;;0.70;0.60;;;19.20;71.60;;;;;;4936123;29;20460;-72
2022/09/03 05:20:24;;;;;;;0.70;0.60;;;19.20;71.70;;;;;;4936003;29;20484;-72
2022/09/03 05:22:51;;;;;;;0.80;0.70;;;19.30;71.60;;;;;;4935725;29;20896;-73
2022/09/03 05:25:18;;;;;;;0.80;0.70;;;19.30;71.50;;;;;;4936064;29;20467;-73
2022/09/03 05:27:45;;;;;;;0.70;0.60;;;19.30;71.50;;;;;;4936023;29;20512;-72
2022/09/03 05:30:13;;;;;;;0.70;0.60;;;19.30;71.60;;;;;;4936050;29;20462;-72
2022/09/03 05:32:39;;;;;;;0.80;0.67;;;19.30;71.40;;;;;;4935993;29;21019;-73
2022/09/03 05:35:08;;;;;;;0.70;0.70;;;19.20;71.90;;;;;;4936151;29;20503;-72
2022/09/03 05:37:36;;;;;;;0.70;0.70;;;19.10;72.20;;;;;;4936149;29;20460;-73
2022/09/03 05:40:03;;;;;;;0.70;0.60;;;19.00;72.30;;;;;;4936208;29;20487;-72
2022/09/03 05:42:34;;;;;;;0.70;0.70;;;19.00;72.40;;;;;;4936527;29;21023;-72
2022/09/03 05:45:00;;;;;;;0.70;0.70;;;19.00;72.70;;;;;;4936384;29;20443;-72
2022/09/03 05:47:27;;;;;;;0.70;0.60;;;18.90;73.00;;;;;;4936461;29;20456;-73
2022/09/03 05:49:53;;;;;;;0.70;0.60;;;19.00;73.10;;;;;;4936426;29;20448;-72
2022/09/03 05:52:22;;;;;;;0.70;0.60;;;18.90;73.20;;;;;;4939616;29;20806;-72
2022/09/03 05:54:50;;;;;;;0.77;0.73;;;19.10;73.30;;;;;;4940338;29;20499;-72
2022/09/03 05:57:16;;;;;;;0.70;0.67;;;19.20;72.80;;;;;;4940767;29;20507;-73
2022/09/03 05:59:43;;;;;;;0.80;0.70;;;19.40;72.70;;;;;;4940472;29;20539;-73
2022/09/03 06:02:10;;;;;;;0.90;0.70;;;19.40;72.50;;;;;;4940072;29;20488;-73
2022/09/03 06:04:36;;;;;;;0.70;0.60;;;19.40;73.10;;;;;;4940037;29;20948;-72
2022/09/03 06:07:03;;;;;;;0.73;0.63;;;19.40;73.00;;;;;;4940257;29;20463;-72
2022/09/03 06:09:30;;;;;;;0.70;0.60;;;19.50;72.90;;;;;;4940410;29;20448;-73
2022/09/03 06:11:58;;;;;;;0.70;0.60;;;19.60;73.20;;;;;;4939976;29;20509;-73
2022/09/03 06:14:24;;;;;;;2.00;0.70;;;19.60;72.90;;;;;;4940647;29;20503;-72
2022/09/03 06:16:51;;;;;;;0.70;0.63;;;19.60;73.00;;;;;;4940349;29;20459;-72
2022/09/03 06:19:18;;;;;;;0.70;0.60;;;19.70;73.20;;;;;;4939987;29;21109;-72
2022/09/03 06:21:46;;;;;;;0.80;0.70;;;19.80;73.30;;;;;;4940820;29;20483;-72
2022/09/03 06:24:14;;;;;;;0.80;0.70;;;19.80;73.30;;;;;;4940612;29;20455;-72
2022/09/03 06:26:41;;;;;;;0.70;0.67;;;19.90;73.50;;;;;;4940437;29;20515;-72
2022/09/03 06:29:09;;;;;;;0.70;0.70;;;20.00;73.70;;;;;;4940925;29;20511;-72
2022/09/03 06:31:36;;;;;;;0.70;0.70;;;20.00;73.40;;;;;;4941025;29;20486;-72
2022/09/03 06:34:02;;;;;;;0.90;0.60;;;20.00;73.80;;;;;;4940117;29;20452;-72
2022/09/03 06:36:29;;;;;;;0.70;0.67;;;20.10;73.70;;;;;;4940358;29;20484;-72
2022/09/03 06:38:57;;;;;;;0.80;0.63;;;20.20;73.90;;;;;;4940522;29;20829;-72
2022/09/03 06:41:26;;;;;;;0.70;0.60;;;20.30;73.40;;;;;;4939633;29;21006;-72
2022/09/03 06:43:54;;;;;;;0.70;0.60;;;20.10;73.60;;;;;;4939512;29;20854;-73
2022/09/03 06:46:23;;;;;;;0.80;0.70;;;20.00;73.90;;;;;;4940774;29;20448;-73
2022/09/03 06:48:52;;;;;;;0.70;0.70;;;20.10;73.80;;;;;;4940224;29;20955;-73
2022/09/03 06:51:20;;;;;;;0.97;0.70;;;20.20;73.50;;;;;;4939733;29;20503;-74
2022/09/03 06:53:49;;;;;;;0.70;0.60;;;20.30;73.20;;;;;;4939479;29;20460;-74
2022/09/03 06:56:18;;;;;;;0.70;0.50;;;20.40;72.60;;;;;;4940661;29;20468;-74
2022/09/03 06:58:49;;;;;;;0.70;0.60;;;20.50;72.50;;;;;;4941046;29;20456;-75
2022/09/03 07:01:18;;;;;;;0.70;0.60;;;20.50;72.80;;;;;;4940705;29;20503;-73
2022/09/03 07:03:48;;;;;;;0.70;0.60;;;20.40;72.90;;;;;;4940748;29;20452;-74
2022/09/03 07:06:16;;;;;;;0.70;0.60;;;20.50;73.40;;;;;;4939653;29;20448;-74
2022/09/03 07:08:43;;;;;;;0.70;0.67;;;20.60;73.10;;;;;;4940028;29;20467;-74
2022/09/03 07:11:12;;;;;;;0.70;0.70;;;20.60;72.80;;;;;;4939457;29;20480;-74
2022/09/03 07:13:42;;;;;;;0.70;0.60;;;20.60;73.40;;;;;;4939437;29;20440;-74
2022/09/03 07:16:11;;;;;;;0.73;0.70;;;20.70;73.70;;;;;;4939956;29;20459;-74
2022/09/03 07:18:38;;;;;;;0.70;0.70;;;20.80;73.40;;;;;;4940188;29;20464;-74
2022/09/03 07:21:09;;;;;;;0.70;0.70;;;20.90;73.40;;;;;;4940058;29;20499;-74
2022/09/03 07:23:38;;;;;;;0.70;0.70;;;21.00;73.10;;;;;;4939355;29;20444;-74
2022/09/03 07:26:06;;;;;;;0.80;0.70;;;21.10;73.20;;;;;;4939129;29;20463;-74
2022/09/03 07:28:35;;;;;;;0.80;0.60;;;21.30;72.90;;;;;;4939647;29;20452;-74
2022/09/03 07:31:05;;;;;;;0.77;0.77;;;21.40;72.70;;;;;;4938999;29;20472;-74
2022/09/03 07:33:32;;;;;;;0.70;0.60;;;21.20;72.40;;;;;;4938531;29;20460;-74
2022/09/03 07:36:03;;;;;;;0.70;0.60;;;21.10;72.80;;;;;;4939272;29;20462;-74
2022/09/03 07:38:31;;;;;;;0.90;0.70;;;21.30;72.90;;;;;;4938398;29;20830;-75
2022/09/03 07:40:58;;;;;;;0.80;0.70;;;21.50;72.80;;;;;;4938242;29;20491;-74
2022/09/03 07:43:25;;;;;;;0.90;0.80;;;21.50;73.00;;;;;;4938558;29;20491;-75
2022/09/03 07:45:53;;;;;;;0.70;0.70;;;21.50;73.00;;;;;;4938773;29;20542;-75
2022/09/03 07:48:20;;;;;;;1.10;0.77;;;21.40;71.70;;;;;;4938735;29;20486;-75
2022/09/03 07:50:46;;;;;;;0.80;0.80;;;21.20;71.10;;;;;;4938028;29;21059;-74
2022/09/03 07:53:13;;;;;;;0.70;0.60;;;21.40;70.90;;;;;;4938759;29;20458;-74
2022/09/03 07:55:41;;;;;;;0.80;0.70;;;21.40;70.50;;;;;;4937898;29;20456;-74
2022/09/03 07:58:09;;;;;;;1.53;0.73;;;21.50;70.90;;;;;;4938163;29;20452;-73
2022/09/03 08:00:36;;;;;;;1.23;0.60;;;21.70;71.60;;;;;;4938042;29;20504;-74
2022/09/03 08:03:07;;;;;;;0.70;0.60;;;21.80;71.00;;;;;;4937675;29;20879;-74
2022/09/03 08:05:35;;;;;;;0.70;0.60;;;21.90;71.10;;;;;;4938179;29;20452;-74
2022/09/03 08:08:02;;;;;;;0.70;0.60;;;21.90;71.30;;;;;;4938819;29;20452;-74
2022/09/03 08:10:31;;;;;;;0.70;0.60;;;21.70;71.80;;;;;;4938383;29;20452;-74
2022/09/03 08:12:59;;;;;;;0.70;0.60;;;21.80;71.70;;;;;;4937793;29;20460;-74
2022/09/03 08:15:26;;;;;;;0.80;0.80;;;21.90;71.60;;;;;;4937737;29;20510;-74
2022/09/03 08:17:53;;;;;;;0.80;0.70;;;22.10;71.50;;;;;;4937742;29;20867;-74
2022/09/03 08:20:20;;;;;;;0.70;0.60;;;22.40;70.00;;;;;;4937741;29;20486;-74
2022/09/03 08:22:47;;;;;;;0.70;0.60;;;22.70;69.40;;;;;;4937741;29;20555;-74
2022/09/03 08:25:13;;;;;;;0.70;0.60;;;23.00;68.70;;;;;;4938374;29;20475;-74
2022/09/03 08:27:40;;;;;;;0.70;0.60;;;23.30;68.60;;;;;;4937569;29;20974;-74
2022/09/03 08:30:10;;;;;;;0.80;0.67;;;23.10;67.80;;;;;;4937480;29;20940;-74
2022/09/03 08:32:38;;;;;;;0.70;0.60;;;23.10;68.40;;;;;;4938305;29;20553;-74
2022/09/03 08:35:05;;;;;;;0.70;0.60;;;23.20;67.80;;;;;;4938310;29;20484;-74
2022/09/03 08:37:32;;;;;;;0.70;0.60;;;23.40;68.00;;;;;;4937838;29;21022;-73
2022/09/03 08:39:59;;;;;;;0.73;0.60;;;23.60;66.90;;;;;;4939850;29;20484;-73
2022/09/03 08:42:49;;;;;;;0.70;0.60;;;23.70;66.10;;;;;;4939875;29;20902;-74
2022/09/03 08:45:20;;;;;;;0.70;0.60;;;23.70;66.60;;;;;;4939329;29;21015;-72
2022/09/03 08:47:50;;;;;;;1.20;0.60;;;23.50;67.10;;;;;;4938131;29;20425;-72
2022/09/03 08:50:23;;;;;;;1.00;0.67;;;23.50;66.80;;;;;;4938149;29;20440;-72
2022/09/03 08:52:58;;;;;;;1.33;0.70;;;23.70;67.20;;;;;;4938342;29;20499;-72
2022/09/03 08:55:28;;;;;;;0.80;0.60;;;23.90;66.80;;;;;;4938171;29;20466;-72
2022/09/03 08:58:02;;;;;;;0.70;0.63;;;23.80;66.10;;;;;;4937837;29;20444;-72
2022/09/03 09:00:47;;;;;;;0.70;0.60;;;23.50;66.30;;;;;;4936883;29;20914;-72
2022/09/03 09:03:43;;;;;;;0.70;0.60;;;23.20;67.00;;;;;;4936713;29;20428;-70
2022/09/03 09:06:19;;;;;;;0.70;0.70;;;23.50;66.90;;;;;;4936210;29;20536;-67
2022/09/03 09:08:56;;;;;;;0.97;0.60;;;23.50;66.70;;;;;;4935989;29;20428;-68
2022/09/03 09:11:34;;;;;;;1.00;0.77;;;23.60;66.40;;;;;;4936123;29;20530;-67
2022/09/03 09:14:05;;;;;;;0.70;0.60;;;23.70;67.10;;;;;;4935880;29;20916;-67
2022/09/03 09:16:42;;;;;;;0.70;0.70;;;23.80;67.10;;;;;;4938144;29;20789;-68
2022/09/03 09:19:22;;;;;;;0.70;0.60;;;23.90;67.00;;;;;;4936162;29;20444;-67
2022/09/03 09:21:52;;;;;;;0.70;0.67;;;23.70;65.40;;;;;;4936051;29;20543;-68
2022/09/03 09:24:23;;;;;;;0.80;0.70;;;23.60;66.50;;;;;;4936369;29;20550;-68
2022/09/03 09:26:54;;;;;;;0.70;0.70;;;23.40;67.00;;;;;;4940021;29;20432;-68
2022/09/03 09:29:20;;;;;;;0.73;0.60;;;23.50;67.90;;;;;;4939621;29;20904;-70
2022/09/03 09:31:48;;;;;;;0.70;0.60;;;23.90;67.90;;;;;;4939848;29;20463;-70
2022/09/03 09:34:15;;;;;;;0.80;0.70;;;24.00;66.20;;;;;;4939560;29;20447;-73
2022/09/03 09:36:47;;;;;;;0.80;0.67;;;23.90;66.60;;;;;;4939478;29;20447;-68
2022/09/03 09:39:15;;;;;;;1.00;0.70;;;23.70;67.40;;;;;;4939812;29;20436;-69
2022/09/03 09:41:42;;;;;;;0.90;0.60;;;23.70;67.80;;;;;;4939554;29;20582;-68
2022/09/03 09:44:19;;;;;;;0.70;0.70;;;23.80;66.80;;;;;;4939272;29;20900;-68
2022/09/03 09:46:46;;;;;;;1.07;0.70;;;23.90;67.30;;;;;;4939488;29;20523;-71
2022/09/03 09:49:30;;;;;;;0.70;0.70;;;24.20;66.90;;;;;;4939537;29;20448;-72
2022/09/03 09:52:03;;;;;;;0.70;0.70;;;24.40;65.40;;;;;;4939625;29;20468;-72
2022/09/03 09:54:29;;;;;;;0.70;0.60;;;24.50;64.70;;;;;;4939379;29;21015;-73
2022/09/03 09:57:02;;;;;;;0.90;0.80;;;24.60;64.50;;;;;;4939556;29;20538;-73
2022/09/03 09:59:29;;;;;;;0.70;0.60;;;24.70;64.10;;;;;;4939555;29;20463;-72
2022/09/03 10:02:08;;;;;;;0.80;0.60;;;24.70;64.20;;;;;;4939165;29;20551;-73
2022/09/03 10:04:37;;;;;;;0.90;0.70;;;24.70;64.10;;;;;;4939302;29;20518;-72
2022/09/03 10:07:18;;;;;;;0.73;0.73;;;24.60;64.40;;;;;;4939224;29;20458;-73
2022/09/03 10:09:45;;;;;;;0.83;0.83;;;24.30;64.10;;;;;;4939310;29;20454;-73
2022/09/03 10:12:23;;;;;;;0.80;0.60;;;24.10;65.50;;;;;;4939159;29;20476;-72
2022/09/03 10:14:56;;;;;;;0.70;0.60;;;24.10;65.80;;;;;;4939192;29;20472;-73
2022/09/03 10:17:30;;;;;;;0.80;0.70;;;24.10;65.60;;;;;;4939191;29;20507;-73
2022/09/03 10:22:54;;;;;;;0.80;0.70;;;23.90;66.40;;;;;;4938833;29;20447;-73
2022/09/03 10:25:23;;;;;;;0.80;0.70;;;24.00;65.90;;;;;;4939028;29;20798;-72
2022/09/03 10:27:52;;;;;;;0.70;0.70;;;23.90;65.90;;;;;;4939202;29;20820;-73
2022/09/03 10:30:19;;;;;;;1.10;0.80;;;24.00;66.60;;;;;;4939192;29;20547;-73
2022/09/03 10:33:01;;;;;;;0.70;0.70;;;24.30;64.80;;;;;;4938994;29;20479;-73
2022/09/03 10:35:30;;;;;;;0.80;0.70;;;24.50;64.70;;;;;;4938891;29;20908;-72
2022/09/03 10:38:09;;;;;;;1.37;0.67;;;24.70;64.70;;;;;;4937898;29;20887;-73
2022/09/03 10:40:40;;;;;;;0.70;0.70;;;25.00;63.20;;;;;;4938880;29;20542;-73
2022/09/03 10:43:23;;;;;;;0.70;0.60;;;25.10;63.30;;;;;;4938757;29;20509;-73
2022/09/03 10:46:01;;;;;;;0.80;0.70;;;25.10;62.50;;;;;;4938563;29;20449;-72
2022/09/03 10:48:57;;;;;;;0.80;0.70;;;25.20;62.30;;;;;;4938712;29;20495;-72
2022/09/03 10:51:32;;;;;;;0.70;0.70;;;25.50;63.60;;;;;;4939375;29;20476;-75
2022/09/03 10:54:21;;;;;;;0.70;0.60;;;25.20;63.00;;;;;;4940660;29;20440;-75
2022/09/03 10:56:59;;;;;;;0.70;0.70;;;24.40;63.80;;;;;;4939114;29;20436;-73
2022/09/03 10:59:36;;;;;;;0.80;0.70;;;24.30;64.60;;;;;;4938704;29;20436;-74
2022/09/03 11:02:21;;;;;;;0.97;0.80;;;24.50;63.60;;;;;;4939873;29;20551;-73
2022/09/03 11:04:55;;;;;;;0.80;0.70;;;24.60;64.20;;;;;;4940191;29;20492;-73
2022/09/03 11:07:30;;;;;;;0.70;0.70;;;24.70;63.50;;;;;;4940489;29;20428;-74
2022/09/03 11:10:05;;;;;;;0.90;0.70;;;24.60;63.80;;;;;;4940457;29;20424;-74
2022/09/03 11:12:38;;;;;;;0.80;0.70;;;24.60;63.60;;;;;;4940399;29;20471;-73
2022/09/03 11:15:11;;;;;;;0.80;0.70;;;24.40;64.00;;;;;;4939701;29;20447;-73
2022/09/03 11:17:40;;;;;;;0.90;0.70;;;24.20;64.10;;;;;;4939888;29;20436;-74
2022/09/03 11:20:16;;;;;;;0.80;0.80;;;24.20;64.50;;;;;;4939329;29;20820;-73
2022/09/03 11:22:46;;;;;;;0.77;0.73;;;24.20;64.50;;;;;;4939722;29;21002;-73
2022/09/03 11:25:15;;;;;;;0.80;0.70;;;24.20;64.90;;;;;;4940122;29;20478;-76
2022/09/03 11:27:58;;;;;;;0.80;0.70;;;24.20;65.40;;;;;;4942473;29;20448;-76
2022/09/03 11:30:35;;;;;;;0.80;0.70;;;23.90;65.50;;;;;;4942053;29;20432;-76
2022/09/03 11:33:08;;;;;;;0.70;0.70;;;24.10;65.80;;;;;;4941971;29;20778;-77
2022/09/03 11:35:40;;;;;;;0.80;0.80;;;24.00;65.30;;;;;;4941239;29;20429;-75
2022/09/03 11:38:26;;;;;;;0.70;0.70;;;23.90;65.60;;;;;;4941224;29;20527;-76
2022/09/03 11:41:01;;;;;;;0.73;0.70;;;24.00;65.20;;;;;;4942144;29;20547;-75
2022/09/03 11:43:29;;;;;;;0.90;0.70;;;24.00;65.10;;;;;;4941589;29;20486;-75
2022/09/03 11:46:11;;;;;;;3.00;0.90;;;23.90;65.80;;;;;;4941526;29;20443;-76
2022/09/03 11:48:42;;;;;;;0.70;0.70;;;23.90;66.40;;;;;;4942098;29;20546;-76
2022/09/03 11:51:36;;;;;;;0.70;0.60;;;23.90;67.20;;;;;;4942155;29;20482;-75
2022/09/03 11:54:06;;;;;;;0.70;0.60;;;23.80;68.50;;;;;;4940115;29;20460;-76
2022/09/03 11:56:35;;;;;;;0.77;0.77;;;23.80;69.10;;;;;;4941233;29;20462;-76
2022/09/03 11:59:06;;;;;;;1.00;0.90;;;23.70;68.30;;;;;;4942095;29;20460;-76
2022/09/03 12:01:34;;;;;;;0.90;0.90;;;23.50;70.40;;;;;;4942163;29;20499;-77
2022/09/03 12:04:04;;;;;;;0.70;0.70;;;23.40;72.10;;;;;;4942074;29;20455;-75
2022/09/03 12:06:57;;;;;;;0.77;0.70;;;23.20;72.10;;;;;;4940769;29;20443;-76
2022/09/03 12:09:45;;;;;;;1.93;0.80;;;23.00;73.30;;;;;;4940827;29;20798;-76
2022/09/03 12:12:27;;;;;;;0.90;0.73;;;22.90;74.60;;;;;;4936607;29;20816;-76
2022/09/03 12:15:04;;;;;;;1.00;0.80;;;22.20;77.00;;;;;;4937488;29;20855;-77
2022/09/03 12:17:34;;;;;;;0.80;0.70;;;21.50;78.70;;;;;;4937124;29;20436;-76
2022/09/03 12:20:02;;;;;;;0.70;0.70;;;21.10;80.20;;;;;;4937161;29;20440;-76
2022/09/03 12:22:30;;;;;;;0.73;0.60;;;20.70;81.90;;;;;;4937048;29;20502;-76
2022/09/03 12:25:07;;;;;;;0.70;0.60;;;20.20;83.50;;;;;;4936943;29;20539;-77
2022/09/03 12:27:34;;;;;;;0.70;0.60;;;19.70;83.30;;;;;;4937352;29;20446;-76
2022/09/03 12:30:04;;;;;;;0.80;0.70;;;19.50;84.50;;;;;;4936824;29;20448;-76
2022/09/03 12:32:35;;;;;;;0.90;0.70;;;19.10;82.70;;;;;;4937366;29;20479;-75
2022/09/03 12:35:12;;;;;;;0.90;0.60;;;18.90;84.30;;;;;;4938757;29;20855;-74
2022/09/03 12:37:39;;;;;;;0.80;0.60;;;18.90;85.10;;;;;;4936738;29;20858;-73
2022/09/03 12:40:17;;;;;;;0.90;0.70;;;18.90;83.80;;;;;;4936797;29;20460;-72
2022/09/03 12:42:44;;;;;;;0.70;0.60;;;18.60;84.40;;;;;;4936520;29;20676;-71
2022/09/03 12:45:14;;;;;;;0.87;0.60;;;18.60;85.40;;;;;;4936585;29;20460;-72
2022/09/03 12:47:43;;;;;;;0.70;0.60;;;18.60;85.40;;;;;;4936458;29;20456;-73
2022/09/03 12:50:12;;;;;;;0.70;0.60;;;18.70;85.30;;;;;;4936377;29;20524;-72
2022/09/03 12:52:42;;;;;;;0.70;0.50;;;19.00;85.10;;;;;;4936301;29;20464;-72
2022/09/03 12:55:27;;;;;;;0.70;0.60;;;19.20;84.80;;;;;;4936496;29;20491;-74
2022/09/03 12:58:00;;;;;;;1.00;0.60;;;19.40;84.70;;;;;;4936442;29;20428;-73
2022/09/03 13:00:30;;;;;;;0.93;0.70;;;19.60;83.80;;;;;;4935958;29;20436;-72
2022/09/03 13:03:01;;;;;;;0.70;0.60;;;19.60;83.90;;;;;;4936379;29;20495;-73
2022/09/03 13:05:32;;;;;;;0.70;0.50;;;19.80;83.50;;;;;;4937740;29;20823;-73
2022/09/03 13:08:02;;;;;;;0.70;0.60;;;19.70;82.80;;;;;;4936248;29;20443;-74
2022/09/03 13:10:35;;;;;;;0.70;0.60;;;19.70;83.00;;;;;;4936452;29;20958;-73
2022/09/03 13:13:05;;;;;;;0.70;0.63;;;19.90;82.30;;;;;;4936115;29;20947;-75
2022/09/03 13:15:32;;;;;;;0.70;0.60;;;19.80;81.40;;;;;;4936132;29;20463;-75
2022/09/03 13:18:12;;;;;;;0.70;0.50;;;19.60;82.30;;;;;;4936127;29;20452;-75
2022/09/03 13:20:50;;;;;;;1.30;0.60;;;19.60;81.40;;;;;;4936049;29;20483;-74
2022/09/03 13:23:55;;;;;;;0.70;0.60;;;19.40;81.70;;;;;;4936041;29;20472;-74
2022/09/03 13:26:32;;;;;;;0.80;0.60;;;19.40;82.70;;;;;;4936065;29;20440;-74
2022/09/03 13:29:24;;;;;;;0.70;0.50;;;19.20;83.50;;;;;;4936049;29;20435;-74
2022/09/03 13:31:54;;;;;;;0.70;0.60;;;19.50;83.90;;;;;;4935975;29;20883;-74
2022/09/03 13:34:25;;;;;;;0.70;0.60;;;19.80;84.40;;;;;;4936011;29;20452;-74
2022/09/03 13:36:57;;;;;;;0.70;0.53;;;19.90;83.60;;;;;;4935948;29;20984;-74
2022/09/03 13:39:28;;;;;;;0.70;0.60;;;19.80;83.90;;;;;;4936006;29;20441;-74
2022/09/03 13:42:05;;;;;;;0.80;0.60;;;20.00;84.20;;;;;;4935820;29;20495;-74
2022/09/03 13:44:40;;;;;;;0.70;0.60;;;20.00;83.00;;;;;;4935887;29;20448;-74
2022/09/03 13:47:13;;;;;;;0.70;0.60;;;20.00;84.50;;;;;;4935847;29;20491;-74
2022/09/03 13:52:48;;;;;;;0.70;0.53;;;20.30;82.40;;;;;;4935598;29;20448;-74
2022/09/03 13:55:21;;;;;;;0.70;0.57;;;20.60;83.90;;;;;;4935524;29;20909;-75
2022/09/03 13:57:55;;;;;;;0.80;0.60;;;20.90;80.50;;;;;;4935790;29;20436;-74
2022/09/03 14:00:26;;;;;;;0.73;0.57;;;21.20;80.90;;;;;;4935774;29;20436;-74
2022/09/03 14:02:58;;;;;;;0.70;0.57;;;21.20;80.50;;;;;;4935301;29;20492;-75
2022/09/03 14:05:41;;;;;;;0.70;0.70;;;21.20;79.70;;;;;;4935777;29;20433;-75
2022/09/03 14:08:15;;;;;;;1.03;0.93;;;21.40;81.40;;;;;;4935703;29;20440;-74
2022/09/03 14:11:03;;;;;;;1.10;0.60;;;21.80;78.90;;;;;;4936134;29;20786;-74
2022/09/03 14:13:42;;;;;;;0.80;0.60;;;21.90;78.40;;;;;;4938770;29;20429;-74
2022/09/03 14:16:25;;;;;;;0.70;0.50;;;22.20;79.60;;;;;;4938864;29;20912;-75
2022/09/03 14:18:56;;;;;;;0.70;0.50;;;22.10;76.60;;;;;;4939207;29;20432;-75
2022/09/03 14:21:29;;;;;;;0.70;0.60;;;22.20;77.20;;;;;;4940177;29;20472;-74
2022/09/03 14:24:04;;;;;;;0.70;0.60;;;22.40;76.10;;;;;;4939905;29;20428;-74
2022/09/03 14:26:33;;;;;;;0.80;0.60;;;22.60;76.20;;;;;;4940726;29;20440;-74
2022/09/03 14:29:03;;;;;;;0.70;0.50;;;22.50;76.00;;;;;;4940156;29;20832;-77
2022/09/03 14:31:52;;;;;;;0.80;0.60;;;22.40;76.60;;;;;;4939246;29;20484;-78
2022/09/03 14:34:32;;;;;;;0.70;0.60;;;22.50;76.50;;;;;;4938781;29;20436;-77
2022/09/03 14:37:06;;;;;;;0.70;0.60;;;22.70;77.30;;;;;;4939139;29;20495;-75
2022/09/03 14:39:38;;;;;;;0.70;0.60;;;22.80;75.60;;;;;;4938440;29;20793;-77
2022/09/03 14:42:22;;;;;;;0.70;0.70;;;22.70;75.80;;;;;;4941880;29;20488;-78
2022/09/03 14:45:31;;;;;;;0.70;0.70;;;22.80;76.00;;;;;;4946290;29;20943;-76
2022/09/03 14:48:17;;;;;;;0.70;0.60;;;22.60;76.10;;;;;;4928553;29;20868;-77
2022/09/03 14:50:56;;;;;;;0.80;0.50;;;22.70;75.60;;;;;;4943583;29;20495;-77
2022/09/03 14:53:49;;;;;;;0.70;0.60;;;23.10;76.10;;;;;;4944621;29;20435;-81
2022/09/03 14:56:33;;;;;;;0.70;0.53;;;24.10;73.20;;;;;;4933000;29;20519;-79
2022/09/03 14:59:27;;;;;;;0.70;0.53;;;25.10;69.30;;;;;;4943789;29;20436;-79
2022/09/03 15:02:22;;;;;;;0.80;0.60;;;26.30;66.70;;;;;;4943724;29;20496;-78
2022/09/03 15:05:03;;;;;;;0.70;0.60;;;27.30;64.60;;;;;;4943321;29;20452;-77
2022/09/03 15:07:36;;;;;;;0.80;0.57;;;27.00;64.40;;;;;;4944436;29;20446;-77
2022/09/03 15:10:14;;;;;;;0.70;0.50;;;26.90;64.10;;;;;;4942748;29;20440;-76
2022/09/03 15:12:45;;;;;;;0.70;0.50;;;27.20;64.40;;;;;;4943560;29;20983;-76
2022/09/03 15:15:17;;;;;;;0.70;0.50;;;26.90;65.00;;;;;;4945888;29;20428;-76
2022/09/03 15:17:56;;;;;;;0.70;0.60;;;26.30;65.50;;;;;;4944874;29;20440;-76
2022/09/03 15:20:37;;;;;;;0.70;0.60;;;26.30;66.60;;;;;;4948039;29;20444;-78
2022/09/03 15:23:20;;;;;;;0.70;0.60;;;25.60;66.60;;;;;;4949060;29;21004;-77
2022/09/03 15:26:21;;;;;;;0.70;0.60;;;25.40;67.30;;;;;;4950033;29;20443;-78
2022/09/03 15:28:59;;;;;;;0.70;0.60;;;25.30;69.00;;;;;;4951051;29;20440;-79
2022/09/03 15:31:33;;;;;;;0.70;0.57;;;26.10;67.10;;;;;;4948728;29;20471;-78
2022/09/03 15:34:31;;;;;;;0.80;0.60;;;25.60;68.00;;;;;;4951472;29;20432;-78
2022/09/03 15:37:03;;;;;;;0.70;0.60;;;25.40;68.60;;;;;;4950986;29;20484;-79
2022/09/03 15:39:34;;;;;;;0.70;0.70;;;24.40;70.90;;;;;;4947615;29;20441;-79
2022/09/03 15:42:08;;;;;;;0.80;0.70;;;24.20;71.70;;;;;;4938414;29;20492;-78
2022/09/03 15:44:37;;;;;;;0.83;0.60;;;24.10;72.70;;;;;;4939019;29;20474;-78
2022/09/03 15:47:08;;;;;;;0.70;0.50;;;24.00;72.90;;;;;;4937913;29;20460;-78
2022/09/03 15:49:48;;;;;;;0.70;0.50;;;23.90;72.80;;;;;;4937284;29;20866;-78
2022/09/03 15:52:37;;;;;;;0.70;0.50;;;23.80;73.50;;;;;;4937484;29;20471;-78
2022/09/03 15:55:10;;;;;;;0.70;0.50;;;23.80;73.40;;;;;;4937652;29;20451;-78
2022/09/03 15:57:46;;;;;;;0.80;0.70;;;23.60;74.40;;;;;;4937465;29;20439;-78
2022/09/03 16:00:18;;;;;;;0.70;0.60;;;23.70;73.90;;;;;;4943746;29;20432;-78
2022/09/03 16:02:51;;;;;;;0.70;0.60;;;23.60;74.30;;;;;;4943126;29;20886;-78
2022/09/03 16:05:24;;;;;;;0.70;0.53;;;23.60;74.80;;;;;;4937793;29;20428;-78
2022/09/03 16:08:04;;;;;;;0.73;0.60;;;23.60;74.20;;;;;;4937335;29;20523;-78
2022/09/03 16:10:45;;;;;;;0.70;0.60;;;23.60;73.90;;;;;;4937857;29;20468;-78
2022/09/03 16:13:31;;;;;;;0.70;0.50;;;23.40;75.10;;;;;;4936860;29;20519;-77
2022/09/03 16:16:01;;;;;;;0.70;0.60;;;23.20;75.00;;;;;;4937076;29;20440;-76
2022/09/03 16:18:33;;;;;;;0.80;0.60;;;23.10;75.00;;;;;;4937011;29;20852;-76
2022/09/03 16:21:05;;;;;;;0.90;0.60;;;22.80;76.20;;;;;;4936864;29;20472;-76